Time,TemperatureF,DewpointF,PressureIn,WindDirection,WindDirectionDegrees,WindSpeedMPH,WindSpeedGustMPH,Humidity,HourlyPrecipIn,Conditions,Clouds,dailyrainin,SolarRadiationWatts/m^2,SoftwareType,DateUTC
2013-05-12 00:00:00,67.0,37.0,-100.00,WNW,290,9.0,14.0,33,0.00,,,0.00,0.000000,,2013-05-12 07:00:00,
2013-05-12 00:32:00,67.0,37.0,-100.00,WNW,290,9.0,14.0,33,0.00,,,0.00,0.000000,,2013-05-12 07:32:00,
2013-05-12 00:42:00,67.0,37.0,-100.00,WNW,290,9.0,14.0,33,0.00,,,0.00,0.000000,,2013-05-12 07:42:00,
2013-05-12 00:52:00,67.0,37.0,-100.00,WNW,290,9.0,14.0,33,0.00,,,0.00,0.000000,,2013-05-12 07:52:00,
2013-05-12 01:00:00,66.0,37.0,-100.00,WNW,294,8.0,15.0,34,0.00,,,0.00,0.000000,,2013-05-12 08:00:00,
2013-05-12 01:32:00,66.0,37.0,-100.00,WNW,294,8.0,15.0,34,0.00,,,0.00,0.000000,,2013-05-12 08:32:00,
2013-05-12 01:42:00,66.0,37.0,-100.00,WNW,294,8.0,15.0,34,0.00,,,0.00,0.000000,,2013-05-12 08:42:00,
2013-05-12 01:53:00,66.0,37.0,-100.00,WNW,294,8.0,15.0,34,0.00,,,0.00,0.000000,,2013-05-12 08:53:00,
2013-05-12 02:00:00,64.0,37.0,-100.00,WNW,297,4.0,13.0,36,0.00,,,0.00,0.000000,,2013-05-12 09:00:00,
2013-05-12 02:21:00,64.0,37.0,-100.00,WNW,297,4.0,13.0,36,0.00,,,0.00,0.000000,,2013-05-12 09:21:00,
2013-05-12 02:33:00,64.0,37.0,-100.00,WNW,297,4.0,13.0,36,0.00,,,0.00,0.000000,,2013-05-12 09:33:00,
2013-05-12 02:43:00,64.0,37.0,-100.00,WNW,297,4.0,13.0,36,0.00,,,0.00,0.000000,,2013-05-12 09:43:00,
2013-05-12 02:53:00,64.0,37.0,-100.00,WNW,297,4.0,13.0,36,0.00,,,0.00,0.000000,,2013-05-12 09:53:00,
2013-05-12 03:00:00,62.0,36.0,-100.00,WNW,286,6.0,11.0,38,0.00,,,0.00,0.000000,,2013-05-12 10:00:00,
2013-05-12 03:33:00,62.0,36.0,-100.00,WNW,286,6.0,11.0,38,0.00,,,0.00,0.000000,,2013-05-12 10:33:00,
2013-05-12 03:42:00,62.0,36.0,-100.00,WNW,286,6.0,11.0,38,0.00,,,0.00,0.000000,,2013-05-12 10:42:00,
2013-05-12 03:52:00,62.0,36.0,-100.00,WNW,286,6.0,11.0,38,0.00,,,0.00,0.000000,,2013-05-12 10:52:00,
2013-05-12 04:00:00,62.0,39.0,-100.00,WNW,291,9.0,12.0,42,0.00,,,0.00,0.000000,,2013-05-12 11:00:00,
2013-05-12 04:22:00,62.0,39.0,-100.00,WNW,291,9.0,12.0,42,0.00,,,0.00,0.000000,,2013-05-12 11:22:00,
2013-05-12 04:32:00,62.0,39.0,-100.00,WNW,291,9.0,12.0,42,0.00,,,0.00,0.000000,,2013-05-12 11:32:00,
2013-05-12 04:42:00,62.0,39.0,-100.00,WNW,291,9.0,12.0,42,0.00,,,0.00,0.000000,,2013-05-12 11:42:00,
2013-05-12 04:52:00,62.0,39.0,-100.00,WNW,291,9.0,12.0,42,0.00,,,0.00,0.000000,,2013-05-12 11:52:00,
2013-05-12 05:00:00,62.0,39.0,-100.00,WNW,293,8.0,12.0,43,0.00,,,0.00,0.000000,,2013-05-12 12:00:00,
2013-05-12 05:22:00,62.0,39.0,-100.00,WNW,293,8.0,12.0,43,0.00,,,0.00,0.000000,,2013-05-12 12:22:00,
2013-05-12 05:32:00,62.0,39.0,-100.00,WNW,293,8.0,12.0,43,0.00,,,0.00,0.000000,,2013-05-12 12:32:00,
2013-05-12 05:42:00,62.0,39.0,-100.00,WNW,293,8.0,12.0,43,0.00,,,0.00,0.000000,,2013-05-12 12:42:00,
2013-05-12 05:52:00,62.0,39.0,-100.00,WNW,293,8.0,12.0,43,0.00,,,0.00,0.000000,,2013-05-12 12:52:00,
2013-05-12 06:00:00,59.0,38.0,-100.00,WNW,291,8.0,12.0,46,0.00,,,0.00,0.000000,,2013-05-12 13:00:00,
2013-05-12 06:32:00,59.0,38.0,-100.00,WNW,291,8.0,12.0,46,0.00,,,0.00,0.000000,,2013-05-12 13:32:00,
2013-05-12 06:42:00,59.0,38.0,-100.00,WNW,291,8.0,12.0,46,0.00,,,0.00,0.000000,,2013-05-12 13:42:00,
2013-05-12 06:52:00,59.0,38.0,-100.00,WNW,291,8.0,12.0,46,0.00,,,0.00,0.000000,,2013-05-12 13:52:00,
2013-05-12 07:00:00,58.0,38.0,-100.00,WNW,293,9.0,12.0,47,0.00,,,-99.99,1.000000,,2013-05-12 14:00:00,
2013-05-12 07:21:00,58.0,38.0,-100.00,WNW,293,9.0,12.0,47,0.00,,,-99.99,1.000000,,2013-05-12 14:21:00,
2013-05-12 07:32:00,58.0,38.0,-100.00,WNW,293,9.0,12.0,47,0.00,,,-99.99,1.000000,,2013-05-12 14:32:00,
2013-05-12 07:42:00,58.0,38.0,-100.00,WNW,293,9.0,12.0,47,0.00,,,-99.99,1.000000,,2013-05-12 14:42:00,
2013-05-12 07:52:00,58.0,38.0,-100.00,WNW,293,9.0,12.0,47,0.00,,,-99.99,1.000000,,2013-05-12 14:52:00,
2013-05-12 08:00:00,64.0,39.0,-100.00,West,278,0.0,12.0,40,0.00,,,0.00,93.000000,,2013-05-12 15:00:00,
2013-05-12 08:34:00,64.0,39.0,-100.00,West,278,0.0,12.0,40,0.00,,,0.00,93.000000,,2013-05-12 15:34:00,
2013-05-12 08:42:00,64.0,39.0,-100.00,West,278,0.0,12.0,40,0.00,,,0.00,93.000000,,2013-05-12 15:42:00,
2013-05-12 08:53:00,64.0,39.0,-100.00,West,278,0.0,12.0,40,0.00,,,0.00,93.000000,,2013-05-12 15:53:00,
2013-05-12 09:00:00,73.0,41.0,-100.00,ESE,108,1.0,5.0,31,0.00,,,0.00,359.000000,,2013-05-12 16:00:00,
2013-05-12 09:23:00,73.0,41.0,-100.00,ESE,108,1.0,5.0,31,0.00,,,0.00,359.000000,,2013-05-12 16:23:00,
2013-05-12 09:33:00,73.0,41.0,-100.00,ESE,108,1.0,5.0,31,0.00,,,0.00,359.000000,,2013-05-12 16:33:00,
2013-05-12 09:42:00,73.0,41.0,-100.00,ESE,108,1.0,5.0,31,0.00,,,0.00,359.000000,,2013-05-12 16:42:00,
2013-05-12 09:52:00,73.0,41.0,-100.00,ESE,108,1.0,5.0,31,0.00,,,0.00,359.000000,,2013-05-12 16:52:00,
2013-05-12 10:00:00,76.0,41.0,-100.00,East,94,3.0,7.0,28,0.00,,,-99.99,637.000000,,2013-05-12 17:00:00,
2013-05-12 10:32:00,76.0,41.0,-100.00,East,94,3.0,7.0,28,0.00,,,-99.99,637.000000,,2013-05-12 17:32:00,
2013-05-12 10:42:00,76.0,41.0,-100.00,East,94,3.0,7.0,28,0.00,,,-99.99,637.000000,,2013-05-12 17:42:00,
2013-05-12 10:52:00,76.0,41.0,-100.00,East,94,3.0,7.0,28,0.00,,,-99.99,637.000000,,2013-05-12 17:52:00,
2013-05-12 11:00:00,81.0,43.0,-100.00,ESE,105,4.0,9.0,26,0.00,,,0.00,896.000000,,2013-05-12 18:00:00,
2013-05-12 11:22:00,81.0,43.0,-100.00,ESE,105,4.0,9.0,26,0.00,,,0.00,896.000000,,2013-05-12 18:22:00,
2013-05-12 11:32:00,81.0,43.0,-100.00,ESE,105,4.0,9.0,26,0.00,,,0.00,896.000000,,2013-05-12 18:32:00,
2013-05-12 11:42:00,81.0,43.0,-100.00,ESE,105,4.0,9.0,26,0.00,,,0.00,896.000000,,2013-05-12 18:42:00,
2013-05-12 11:52:00,81.0,43.0,-100.00,ESE,105,4.0,9.0,26,0.00,,,0.00,896.000000,,2013-05-12 18:52:00,
2013-05-12 12:00:00,84.0,42.0,-100.00,East,94,5.0,10.0,23,0.00,,,0.00,1112.000000,,2013-05-12 19:00:00,
2013-05-12 12:22:00,84.0,42.0,-100.00,East,94,5.0,10.0,23,0.00,,,0.00,1112.000000,,2013-05-12 19:22:00,
2013-05-12 12:32:00,84.0,42.0,-100.00,East,94,5.0,10.0,23,0.00,,,0.00,1112.000000,,2013-05-12 19:32:00,
2013-05-12 12:42:00,84.0,42.0,-100.00,East,94,5.0,10.0,23,0.00,,,0.00,1112.000000,,2013-05-12 19:42:00,
2013-05-12 12:52:00,84.0,42.0,-100.00,East,94,5.0,10.0,23,0.00,,,0.00,1112.000000,,2013-05-12 19:52:00,
2013-05-12 13:00:00,88.0,44.0,-100.00,ESE,110,7.0,11.0,22,0.00,,,0.00,1263.000000,,2013-05-12 20:00:00,
2013-05-12 13:32:00,88.0,44.0,-100.00,ESE,110,7.0,11.0,22,0.00,,,0.00,1263.000000,,2013-05-12 20:32:00,
2013-05-12 13:42:00,88.0,44.0,-100.00,ESE,110,7.0,11.0,22,0.00,,,0.00,1263.000000,,2013-05-12 20:42:00,
2013-05-12 13:52:00,88.0,44.0,-100.00,ESE,110,7.0,11.0,22,0.00,,,0.00,1263.000000,,2013-05-12 20:52:00,
2013-05-12 14:22:00,92.0,30.0,-100.00,South,177,5.0,12.0,11,0.00,,,0.00,1334.000000,,2013-05-12 21:22:00,
2013-05-12 14:33:00,92.0,30.0,-100.00,South,177,5.0,12.0,11,0.00,,,0.00,1334.000000,,2013-05-12 21:33:00,
2013-05-12 15:00:00,89.0,44.0,-100.00,West,281,13.0,21.0,21,0.00,,,0.00,1354.000000,,2013-05-12 22:00:00,
2013-05-12 15:23:00,89.0,44.0,-100.00,West,281,13.0,21.0,21,0.00,,,0.00,1354.000000,,2013-05-12 22:23:00,
2013-05-12 15:33:00,89.0,44.0,-100.00,West,281,13.0,21.0,21,0.00,,,0.00,1354.000000,,2013-05-12 22:33:00,
2013-05-12 15:42:00,89.0,44.0,-100.00,West,281,13.0,21.0,21,0.00,,,0.00,1354.000000,,2013-05-12 22:42:00,
2013-05-12 15:52:00,89.0,44.0,-100.00,West,281,13.0,21.0,21,0.00,,,0.00,1354.000000,,2013-05-12 22:52:00,
2013-05-12 16:00:00,88.0,39.0,-100.00,West,279,13.0,24.0,18,0.00,,,0.00,1280.000000,,2013-05-12 23:00:00,
2013-05-12 16:22:00,88.0,39.0,-100.00,West,279,13.0,24.0,18,0.00,,,0.00,1280.000000,,2013-05-12 23:22:00,
2013-05-12 16:32:00,88.0,39.0,-100.00,West,279,13.0,24.0,18,0.00,,,0.00,1280.000000,,2013-05-12 23:32:00,
2013-05-12 16:42:00,88.0,39.0,-100.00,West,279,13.0,24.0,18,0.00,,,0.00,1280.000000,,2013-05-12 23:42:00,
2013-05-12 16:52:00,88.0,39.0,-100.00,West,279,13.0,24.0,18,0.00,,,0.00,1280.000000,,2013-05-12 23:52:00,
2013-05-12 17:00:00,88.0,38.0,-100.00,WNW,282,11.0,23.0,17,0.00,,,0.00,894.000000,,2013-05-13 00:00:00,
2013-05-12 17:32:00,88.0,38.0,-100.00,WNW,282,11.0,23.0,17,0.00,,,0.00,894.000000,,2013-05-13 00:32:00,
2013-05-12 17:42:00,88.0,38.0,-100.00,WNW,282,11.0,23.0,17,0.00,,,0.00,894.000000,,2013-05-13 00:42:00,
2013-05-12 17:52:00,88.0,38.0,-100.00,WNW,282,11.0,23.0,17,0.00,,,0.00,894.000000,,2013-05-13 00:52:00,
2013-05-12 18:00:00,88.0,35.0,-100.00,West,275,9.0,21.0,15,0.00,,,0.00,827.000000,,2013-05-13 01:00:00,
2013-05-12 18:22:00,88.0,35.0,-100.00,West,275,9.0,21.0,15,0.00,,,0.00,827.000000,,2013-05-13 01:22:00,
2013-05-12 18:32:00,88.0,35.0,-100.00,West,275,9.0,21.0,15,0.00,,,0.00,827.000000,,2013-05-13 01:32:00,
2013-05-12 18:42:00,88.0,35.0,-100.00,West,275,9.0,21.0,15,0.00,,,0.00,827.000000,,2013-05-13 01:42:00,
2013-05-12 18:52:00,88.0,35.0,-100.00,West,275,9.0,21.0,15,0.00,,,0.00,827.000000,,2013-05-13 01:52:00,
2013-05-12 19:00:00,84.0,39.0,-100.00,WNW,293,10.0,20.0,20,0.00,,,0.00,284.000000,,2013-05-13 02:00:00,
2013-05-12 19:21:00,84.0,39.0,-100.00,WNW,293,10.0,20.0,20,0.00,,,0.00,284.000000,,2013-05-13 02:21:00,
2013-05-12 19:32:00,84.0,39.0,-100.00,WNW,293,10.0,20.0,20,0.00,,,0.00,284.000000,,2013-05-13 02:32:00,
2013-05-12 19:42:00,84.0,39.0,-100.00,WNW,293,10.0,20.0,20,0.00,,,0.00,284.000000,,2013-05-13 02:42:00,
2013-05-12 19:52:00,84.0,39.0,-100.00,WNW,293,10.0,20.0,20,0.00,,,0.00,284.000000,,2013-05-13 02:52:00,
2013-05-12 20:00:00,81.0,41.0,-100.00,WNW,283,7.0,18.0,24,0.00,,,0.00,52.000000,,2013-05-13 03:00:00,
2013-05-12 20:22:00,81.0,41.0,-100.00,WNW,283,7.0,18.0,24,0.00,,,0.00,52.000000,,2013-05-13 03:22:00,
2013-05-12 20:33:00,81.0,41.0,-100.00,WNW,283,7.0,18.0,24,0.00,,,0.00,52.000000,,2013-05-13 03:33:00,
2013-05-12 20:42:00,81.0,41.0,-100.00,WNW,283,7.0,18.0,24,0.00,,,0.00,52.000000,,2013-05-13 03:42:00,
2013-05-12 20:53:00,81.0,41.0,-100.00,WNW,283,7.0,18.0,24,0.00,,,0.00,52.000000,,2013-05-13 03:53:00,
2013-05-12 21:00:00,76.0,41.0,-100.00,WNW,282,8.0,19.0,28,0.00,,,0.00,17.000000,,2013-05-13 04:00:00,
2013-05-12 21:23:00,76.0,41.0,-100.00,WNW,282,8.0,19.0,28,0.00,,,0.00,17.000000,,2013-05-13 04:23:00,
2013-05-12 21:33:00,76.0,41.0,-100.00,WNW,282,8.0,19.0,28,0.00,,,0.00,17.000000,,2013-05-13 04:33:00,
2013-05-12 21:42:00,76.0,41.0,-100.00,WNW,282,8.0,19.0,28,0.00,,,0.00,17.000000,,2013-05-13 04:42:00,
2013-05-12 21:52:00,76.0,41.0,-100.00,WNW,282,8.0,19.0,28,0.00,,,0.00,17.000000,,2013-05-13 04:52:00,
2013-05-12 22:00:00,72.0,40.0,-100.00,West,272,9.0,17.0,31,0.00,,,0.00,0.000000,,2013-05-13 05:00:00,
2013-05-12 22:32:00,72.0,40.0,-100.00,West,272,9.0,17.0,31,0.00,,,0.00,0.000000,,2013-05-13 05:32:00,
2013-05-12 22:42:00,72.0,40.0,-100.00,West,272,9.0,17.0,31,0.00,,,0.00,0.000000,,2013-05-13 05:42:00,
2013-05-12 22:52:00,72.0,40.0,-100.00,West,272,9.0,17.0,31,0.00,,,0.00,0.000000,,2013-05-13 05:52:00,
2013-05-12 23:00:00,70.0,35.0,-100.00,WNW,287,5.0,15.0,28,0.00,,,0.00,0.000000,,2013-05-13 06:00:00,
2013-05-12 23:22:00,70.0,35.0,-100.00,WNW,287,5.0,15.0,28,0.00,,,0.00,0.000000,,2013-05-13 06:22:00,
2013-05-12 23:32:00,70.0,35.0,-100.00,WNW,287,5.0,15.0,28,0.00,,,0.00,0.000000,,2013-05-13 06:32:00,
2013-05-12 23:42:00,70.0,35.0,-100.00,WNW,287,5.0,15.0,28,0.00,,,0.00,0.000000,,2013-05-13 06:42:00,
2013-05-12 23:52:00,70.0,35.0,-100.00,WNW,287,5.0,15.0,28,0.00,,,0.00,0.000000,,2013-05-13 06:52:00,